Time;durP1;ratioP1;P1;durP2;ratioP2;P2;SDS_P1;SDS_P2;PMS_P1;PMS_P2;Temp;Humidity;BMP_temperature;BMP_pressure;BME280_temperature;BME280_humidity;BME280_pressure;Samples;Min_cycle;Max_cycle;Signal;HPM_P1;HPM_P2
2021/07/30 00:02:15;;;;;;;4.43;3.00;;;;;;;13.54;73.92;95385.91;5094388;28;20230;-77
2021/07/30 00:04:40;;;;;;;4.50;3.67;;;;;;;13.52;73.39;95385.28;5094724;28;20211;-77
2021/07/30 00:07:05;;;;;;;5.13;3.50;;;;;;;13.49;73.32;95380.38;5094781;28;20167;-77
2021/07/30 00:09:31;;;;;;;4.60;2.80;;;;;;;13.46;73.76;95379.91;5094803;28;20538;-77
2021/07/30 00:11:56;;;;;;;6.20;3.30;;;;;;;13.42;73.63;95382.03;5112469;28;20168;-77
2021/07/30 00:14:21;;;;;;;4.43;4.03;;;;;;;13.38;73.74;95377.31;5077795;28;20286;-77
2021/07/30 00:16:47;;;;;;;7.40;3.93;;;;;;;13.36;73.99;95382.72;5094810;28;20183;-77
2021/07/30 00:19:12;;;;;;;4.40;3.40;;;;;;;13.33;73.70;95383.84;5077571;28;20194;-77
2021/07/30 00:21:37;;;;;;;5.23;3.30;;;;;;;13.32;73.38;95384.03;5077341;28;20600;-78
2021/07/30 00:24:03;;;;;;;4.00;3.30;;;;;;;13.32;73.51;95389.25;5077575;28;20178;-77
2021/07/30 00:26:28;;;;;;;3.83;3.53;;;;;;;13.35;73.10;95377.69;5094520;28;20180;-77
2021/07/30 00:28:54;;;;;;;6.37;4.23;;;;;;;13.32;73.56;95378.81;5112668;28;20172;-79
2021/07/30 00:31:19;;;;;;;4.70;3.50;;;;;;;13.32;73.36;95387.44;5094353;28;20160;-78
2021/07/30 00:33:44;;;;;;;4.17;3.53;;;;;;;13.31;73.70;95380.59;5094463;28;20180;-78
2021/07/30 00:36:10;;;;;;;4.77;3.43;;;;;;;13.21;73.69;95379.97;5094088;28;20192;-78
2021/07/30 00:38:35;;;;;;;6.07;3.70;;;;;;;13.21;74.48;95374.78;5094313;28;20223;-78
2021/07/30 00:41:00;;;;;;;6.13;3.83;;;;;;;13.20;74.54;95373.16;5078334;28;20518;-78
2021/07/30 00:43:26;;;;;;;5.97;3.63;;;;;;;13.15;74.75;95372.78;5079252;28;20484;-78
2021/07/30 00:45:53;;;;;;;6.03;3.80;;;;;;;13.12;74.44;95370.53;5096127;28;20287;-77
2021/07/30 00:48:19;;;;;;;5.33;3.40;;;;;;;13.11;74.59;95376.72;5077335;28;20176;-77
2021/07/30 00:50:44;;;;;;;4.97;3.97;;;;;;;12.98;74.88;95364.19;5095901;28;20285;-77
2021/07/30 00:53:10;;;;;;;4.43;3.53;;;;;;;13.08;74.50;95377.06;5115871;28;20525;-77
2021/07/30 00:55:36;;;;;;;4.33;3.40;;;;;;;13.08;74.50;95369.25;5080667;28;20208;-77
2021/07/30 00:58:02;;;;;;;3.80;3.23;;;;;;;13.11;74.17;95374.13;5106601;27;20175;-78
2021/07/30 01:00:28;;;;;;;7.03;3.30;;;;;;;13.08;73.96;95371.06;5101230;27;20183;-76
2021/07/30 01:02:53;;;;;;;5.00;3.47;;;;;;;13.04;74.16;95368.75;5100685;27;20215;-77
2021/07/30 01:05:18;;;;;;;4.37;3.37;;;;;;;13.03;74.41;95364.53;5101102;27;20249;-78
2021/07/30 01:07:44;;;;;;;4.40;3.50;;;;;;;13.01;74.15;95361.28;5118132;27;20653;-77
2021/07/30 01:10:09;;;;;;;5.43;3.53;;;;;;;13.01;74.12;95365.69;5118407;27;20228;-78
2021/07/30 01:12:35;;;;;;;4.03;3.57;;;;;;;13.04;73.92;95366.16;5118093;27;20182;-78
2021/07/30 01:15:00;;;;;;;4.60;4.03;;;;;;;13.02;74.10;95370.72;5118433;27;20285;-77
2021/07/30 01:17:25;;;;;;;3.87;3.47;;;;;;;13.04;73.85;95362.72;5118113;27;20634;-77
2021/07/30 01:19:54;;;;;;;4.80;3.80;;;;;;;13.02;73.82;95362.09;5118183;27;20186;-77
2021/07/30 01:22:24;;;;;;;4.90;3.13;;;;;;;12.98;73.75;95358.97;5118301;27;20195;-78
2021/07/30 01:24:53;;;;;;;3.63;3.33;;;;;;;12.98;73.43;95355.56;5118459;27;20234;-78
2021/07/30 01:27:20;;;;;;;4.13;3.60;;;;;;;12.98;73.65;95358.16;5100845;27;20202;-78
2021/07/30 01:29:45;;;;;;;3.57;2.87;;;;;;;12.96;73.79;95357.53;5117936;27;20176;-78
2021/07/30 01:32:11;;;;;;;3.83;3.30;;;;;;;12.98;73.86;95358.16;5100858;27;20176;-78
2021/07/30 01:34:36;;;;;;;3.20;2.80;;;;;;;12.99;73.79;95359.81;5100344;27;20221;-78
2021/07/30 01:37:02;;;;;;;4.87;3.10;;;;;;;12.99;73.77;95362.44;5100941;27;20197;-78
2021/07/30 01:39:27;;;;;;;4.67;3.80;;;;;;;12.92;74.37;95359.66;5117818;27;20175;-77
2021/07/30 01:41:52;;;;;;;5.23;3.80;;;;;;;12.96;74.02;95355.75;5100447;27;20228;-77
2021/07/30 01:44:18;;;;;;;4.53;3.37;;;;;;;12.92;74.04;95351.84;5135726;27;20566;-77
2021/07/30 01:46:43;;;;;;;4.73;3.60;;;;;;;12.87;74.58;95358.53;5117222;27;20179;-76
2021/07/30 01:49:08;;;;;;;4.87;3.60;;;;;;;12.89;73.85;95353.97;5117031;27;20179;-78
2021/07/30 01:51:34;;;;;;;4.17;3.60;;;;;;;12.84;74.69;95345.84;5099689;27;20198;-78
2021/07/30 01:53:59;;;;;;;3.67;3.23;;;;;;;12.81;74.37;95344.41;5116989;27;20179;-78
2021/07/30 01:56:24;;;;;;;5.30;3.40;;;;;;;12.80;74.53;95347.13;5135295;27;20614;-77
2021/07/30 01:58:50;;;;;;;4.07;3.17;;;;;;;12.90;73.88;95347.78;5117009;27;20237;-78
2021/07/30 02:01:15;;;;;;;5.33;3.50;;;;;;;12.91;73.57;95337.19;5099509;27;20216;-78
2021/07/30 02:03:40;;;;;;;6.00;3.37;;;;;;;12.94;73.55;95343.88;5099637;27;20211;-78
2021/07/30 02:06:09;;;;;;;5.00;2.93;;;;;;;12.99;73.40;95342.41;5116855;27;20281;-78
2021/07/30 02:08:35;;;;;;;5.33;3.80;;;;;;;12.93;73.41;95343.06;5117163;27;20590;-78
2021/07/30 02:11:00;;;;;;;3.87;3.53;;;;;;;12.83;74.19;95341.63;5116698;27;20202;-78
2021/07/30 02:16:10;;;;;;;5.67;3.80;;;;;;;12.81;74.07;95346.16;5119605;27;20202;-78
2021/07/30 02:18:35;;;;;;;8.60;3.50;;;;;;;12.79;74.24;95341.13;5135014;27;20183;-78
2021/07/30 02:21:00;;;;;;;4.00;3.60;;;;;;;12.81;74.08;95338.34;5116508;27;20661;-78
2021/07/30 02:23:26;;;;;;;4.40;3.80;;;;;;;12.83;74.21;95336.41;5099652;27;20183;-77
2021/07/30 02:25:52;;;;;;;5.17;3.50;;;;;;;12.81;74.30;95338.34;5099564;27;20557;-78
2021/07/30 02:28:17;;;;;;;4.27;3.47;;;;;;;12.83;74.24;95333.81;5099414;27;20662;-78
2021/07/30 02:30:42;;;;;;;5.13;3.43;;;;;;;12.86;74.27;95336.06;5134886;27;20211;-77
2021/07/30 02:33:07;;;;;;;4.80;3.13;;;;;;;12.92;73.85;95332.78;5099123;27;20215;-78
2021/07/30 02:35:33;;;;;;;4.20;3.60;;;;;;;12.97;73.36;95327.88;5134320;27;20290;-78
2021/07/30 02:37:58;;;;;;;5.20;3.60;;;;;;;12.94;73.47;95328.22;5116438;27;20635;-78
2021/07/30 02:40:23;;;;;;;5.03;3.53;;;;;;;12.94;73.53;95329.03;5116292;27;20179;-78
2021/07/30 02:42:49;;;;;;;5.60;4.00;;;;;;;13.00;73.47;95333.59;5115911;27;20217;-79
2021/07/30 02:45:14;;;;;;;5.17;3.57;;;;;;;12.99;73.41;95320.72;5134493;27;20603;-77
2021/07/30 02:47:39;;;;;;;3.93;3.40;;;;;;;12.99;73.57;95325.94;5098983;27;20222;-78
2021/07/30 02:50:05;;;;;;;4.13;3.63;;;;;;;13.10;72.93;95325.56;5098862;27;20274;-78
2021/07/30 02:52:30;;;;;;;7.07;3.97;;;;;;;13.14;72.74;95324.25;5115603;27;20210;-77
2021/07/30 02:54:56;;;;;;;5.93;3.50;;;;;;;13.16;72.91;95326.66;5098810;27;20257;-78
2021/07/30 02:57:21;;;;;;;5.97;3.90;;;;;;;13.16;72.77;95313.63;5098491;27;20638;-78
2021/07/30 02:59:46;;;;;;;6.17;4.00;;;;;;;13.15;72.89;95305.00;5134188;27;20193;-78
2021/07/30 03:02:11;;;;;;;5.20;4.30;;;;;;;13.17;72.85;95302.25;5115321;27;20207;-77
2021/07/30 03:04:37;;;;;;;4.47;3.30;;;;;;;13.22;72.68;95303.38;5133648;27;20199;-78
2021/07/30 03:07:02;;;;;;;4.23;3.70;;;;;;;13.18;72.71;95298.66;5115747;27;20190;-78
2021/07/30 03:09:28;;;;;;;5.57;3.90;;;;;;;13.19;72.53;95308.09;5098598;27;20186;-78
2021/07/30 03:11:53;;;;;;;5.27;3.53;;;;;;;13.18;72.63;95303.88;5115457;27;20535;-78
2021/07/30 03:14:18;;;;;;;4.77;3.07;;;;;;;13.21;72.47;95304.38;5098139;27;20201;-78
2021/07/30 03:16:43;;;;;;;5.50;3.37;;;;;;;13.21;72.34;95298.34;5133804;27;20183;-77
2021/07/30 03:19:09;;;;;;;5.47;3.70;;;;;;;13.21;72.43;95299.16;5098444;27;20202;-78
2021/07/30 03:21:34;;;;;;;4.03;3.63;;;;;;;13.22;72.29;95300.78;5134609;27;20590;-78
2021/07/30 03:23:59;;;;;;;5.17;4.03;;;;;;;13.29;72.10;95301.72;5118535;27;20175;-76
2021/07/30 03:26:25;;;;;;;5.23;3.53;;;;;;;13.28;72.14;95296.69;5137949;27;20179;-77
2021/07/30 03:28:50;;;;;;;5.00;3.67;;;;;;;13.34;72.01;95298.63;5119199;27;20187;-77
2021/07/30 03:31:16;;;;;;;7.30;3.67;;;;;;;13.33;71.76;95297.78;5119584;27;20172;-76
2021/07/30 03:33:41;;;;;;;5.63;3.50;;;;;;;13.31;71.82;95299.75;5118449;27;20661;-78
2021/07/30 03:36:07;;;;;;;4.40;4.00;;;;;;;13.35;71.63;95294.22;5115549;27;20195;-78
2021/07/30 03:38:32;;;;;;;4.37;3.23;;;;;;;13.37;71.52;95295.66;5098922;27;20549;-78
2021/07/30 03:41:02;;;;;;;3.27;2.97;;;;;;;13.46;71.31;95292.03;5115548;27;20262;-78
2021/07/30 03:43:27;;;;;;;5.03;3.67;;;;;;;13.44;71.41;95288.78;5115836;27;20527;-78
2021/07/30 03:45:53;;;;;;;3.53;3.23;;;;;;;13.46;71.19;95292.03;5115561;27;20286;-78
2021/07/30 03:48:18;;;;;;;4.30;3.60;;;;;;;13.41;71.15;95288.31;5098782;27;20183;-78
2021/07/30 03:50:43;;;;;;;4.17;3.77;;;;;;;13.47;71.20;95282.41;5115897;27;20178;-77
2021/07/30 03:53:08;;;;;;;3.70;3.40;;;;;;;13.44;71.39;95288.78;5114788;28;20570;-77
2021/07/30 03:55:34;;;;;;;4.27;3.87;;;;;;;13.47;71.22;95282.41;5115174;27;20203;-78
2021/07/30 03:57:59;;;;;;;4.77;3.80;;;;;;;13.42;71.50;95285.50;5114850;27;20228;-77
2021/07/30 04:00:24;;;;;;;5.07;3.63;;;;;;;13.40;71.70;95287.50;5098254;28;20252;-78
2021/07/30 04:02:50;;;;;;;5.93;3.50;;;;;;;13.44;71.48;95278.34;5114677;28;20213;-78
2021/07/30 04:05:15;;;;;;;5.53;3.47;;;;;;;13.40;71.48;95286.69;5115246;28;20194;-78
2021/07/30 04:07:40;;;;;;;5.03;4.20;;;;;;;13.44;71.33;95294.00;5098015;28;20171;-78
2021/07/30 04:10:07;;;;;;;8.10;3.80;;;;;;;13.47;71.48;95285.03;5115300;28;20183;-77
2021/07/30 04:12:32;;;;;;;3.80;3.40;;;;;;;13.51;71.31;95281.06;5115048;28;20171;-78
2021/07/30 04:14:57;;;;;;;4.90;4.00;;;;;;;13.50;71.16;95289.88;5097819;28;20202;-78
2021/07/30 04:17:23;;;;;;;6.53;4.37;;;;;;;13.50;71.11;95280.25;5133648;28;20171;-80
2021/07/30 04:19:48;;;;;;;4.30;3.90;;;;;;;13.57;70.77;95283.81;5099975;28;20179;-79
2021/07/30 04:22:13;;;;;;;5.40;3.60;;;;;;;13.61;70.93;95281.69;5107483;28;20202;-78
2021/07/30 04:24:39;;;;;;;5.80;4.00;;;;;;;13.63;70.78;95271.88;5114172;27;20207;-78
2021/07/30 04:27:05;;;;;;;4.10;3.70;;;;;;;13.65;70.87;95275.13;5135646;27;20183;-77
2021/07/30 04:29:30;;;;;;;4.20;3.80;;;;;;;13.72;70.36;95272.63;5101721;27;20250;-77
2021/07/30 04:31:56;;;;;;;7.43;3.70;;;;;;;13.78;70.27;95280.59;5098246;28;20198;-77
2021/07/30 04:34:21;;;;;;;4.53;3.40;;;;;;;13.75;70.03;95286.16;5131464;27;20191;-78
2021/07/30 04:36:46;;;;;;;4.20;3.60;;;;;;;13.85;70.04;95278.88;5101889;27;20186;-78
2021/07/30 04:39:12;;;;;;;5.53;4.27;;;;;;;13.93;69.90;95279.81;5119044;27;20268;-77
2021/07/30 04:41:37;;;;;;;4.37;3.97;;;;;;;14.00;69.73;95280.75;5118663;27;20198;-78
2021/07/30 04:44:02;;;;;;;5.93;3.90;;;;;;;14.03;69.72;95286.44;5118839;27;20178;-78
2021/07/30 04:46:28;;;;;;;4.33;3.83;;;;;;;14.14;69.35;95283.44;5136889;27;20186;-77
2021/07/30 04:48:53;;;;;;;6.67;4.13;;;;;;;14.30;69.50;95282.44;5118867;27;20241;-78
2021/07/30 04:51:18;;;;;;;6.23;3.70;;;;;;;15.40;66.29;95293.06;5118694;27;20178;-76
2021/07/30 04:53:45;;;;;;;5.40;3.13;;;;;;;17.34;59.03;95291.88;5118594;27;20545;-77
2021/07/30 04:56:20;;;;;;;4.03;3.35;;;;;;;18.99;52.88;95296.56;5119886;27;20203;-77
2021/07/30 04:58:46;;;;;;;3.85;3.40;;;;;;;20.84;48.71;95298.22;5136555;27;20170;-77
2021/07/30 05:01:11;;;;;;;4.63;3.15;;;;;;;21.21;46.60;95297.25;5117665;27;20521;-77
2021/07/30 05:03:37;;;;;;;4.63;3.17;;;;;;;22.55;43.85;95297.16;5100415;27;20231;-77
2021/07/30 05:06:15;;;;;;;3.10;2.80;;;;;;;23.28;41.70;95296.72;5099979;27;20221;-78
2021/07/30 05:08:40;;;;;;;3.10;2.80;;;;;;;23.89;40.17;95297.97;5100408;27;20251;-77
2021/07/30 05:11:06;;;;;;;4.28;3.08;;;;;;;23.95;39.67;95296.25;5116532;27;20650;-77
2021/07/30 05:13:31;;;;;;;3.45;3.10;;;;;;;24.34;39.18;95291.91;5117301;27;20178;-77
2021/07/30 05:15:58;;;;;;;3.55;2.88;;;;;;;24.92;37.69;95296.03;5100481;27;20290;-78
2021/07/30 05:18:23;;;;;;;6.35;2.90;;;;;;;25.00;37.19;95300.09;5135544;27;20171;-77
2021/07/30 05:20:48;;;;;;;3.40;2.72;;;;;;;24.79;37.35;95297.16;5117053;27;20190;-77
2021/07/30 05:23:14;;;;;;;4.53;2.70;;;;;;;24.86;36.71;95303.13;5117885;27;20598;-79
2021/07/30 05:25:39;;;;;;;4.18;2.88;;;;;;;25.69;35.87;95289.88;5121368;27;20217;-79
2021/07/30 05:28:04;;;;;;;4.13;2.72;;;;;;;25.17;36.83;95290.28;5123201;27;20175;-79
2021/07/30 05:30:31;;;;;;;4.88;3.03;;;;;;;25.58;36.05;95286.31;5121294;27;20175;-79
2021/07/30 05:32:56;;;;;;;4.90;3.03;;;;;;;25.38;36.88;95294.03;5118843;27;20167;-80
2021/07/30 05:35:21;;;;;;;4.13;3.20;;;;;;;25.73;34.83;95288.38;5095723;28;20269;-77
2021/07/30 05:37:47;;;;;;;3.90;2.67;;;;;;;25.79;35.67;95286.56;5134590;27;20654;-77
2021/07/30 05:40:12;;;;;;;3.13;2.83;;;;;;;25.28;36.45;95288.59;5117007;27;20198;-77
2021/07/30 05:42:37;;;;;;;3.60;3.00;;;;;;;25.05;37.07;95276.31;5134752;27;20202;-77
2021/07/30 05:45:03;;;;;;;3.42;2.65;;;;;;;26.22;35.63;95281.16;5099878;27;20191;-77
2021/07/30 05:47:28;;;;;;;3.67;3.30;;;;;;;26.71;34.11;95283.75;5116349;27;20174;-77
2021/07/30 05:49:54;;;;;;;5.88;3.55;;;;;;;25.36;36.30;95280.19;5116176;27;20175;-76
2021/07/30 05:52:19;;;;;;;3.78;3.10;;;;;;;27.18;33.55;95285.69;5116015;27;20163;-77
2021/07/30 05:54:44;;;;;;;5.50;3.08;;;;;;;27.19;33.02;95287.28;5116083;27;20190;-76
2021/07/30 05:57:10;;;;;;;3.40;3.10;;;;;;;25.97;36.02;95278.25;5099391;27;20175;-77
2021/07/30 05:59:35;;;;;;;4.85;2.90;;;;;;;26.72;34.07;95282.69;5116430;27;20545;-77
2021/07/30 06:02:00;;;;;;;5.22;3.03;;;;;;;26.79;34.58;95269.16;5098656;27;20192;-77
2021/07/30 06:04:25;;;;;;;3.63;3.10;;;;;;;26.88;34.20;95282.81;5134054;27;20225;-77
2021/07/30 06:06:51;;;;;;;4.70;3.20;;;;;;;27.19;33.53;95286.50;5099464;27;20190;-77
2021/07/30 06:09:17;;;;;;;2.97;2.75;;;;;;;27.88;32.61;95278.28;5099150;27;20651;-76
2021/07/30 06:11:43;;;;;;;3.85;2.88;;;;;;;27.82;32.41;95274.78;5116271;27;20259;-77
2021/07/30 06:14:08;;;;;;;5.30;2.83;;;;;;;27.98;31.86;95277.53;5115869;27;20183;-76
2021/07/30 06:16:33;;;;;;;6.85;2.88;;;;;;;28.56;30.92;95270.97;5116044;27;20224;-77
2021/07/30 06:18:59;;;;;;;4.50;2.88;;;;;;;29.12;29.95;95276.28;5115418;27;20541;-77
2021/07/30 06:21:24;;;;;;;4.65;3.00;;;;;;;29.03;30.19;95275.22;5098266;27;20249;-76
2021/07/30 06:23:50;;;;;;;4.95;3.05;;;;;;;29.07;29.79;95273.63;5134414;27;20187;-77
2021/07/30 06:26:15;;;;;;;5.95;3.30;;;;;;;28.18;31.56;95274.88;5115738;27;20523;-77
2021/07/30 06:28:40;;;;;;;3.97;3.03;;;;;;;28.15;31.58;95276.22;5115817;27;20274;-77
2021/07/30 06:31:05;;;;;;;3.40;3.10;;;;;;;27.58;32.76;95269.09;5133864;27;20646;-75
2021/07/30 06:33:31;;;;;;;4.03;3.20;;;;;;;28.09;32.40;95268.47;5133606;27;20163;-77
2021/07/30 06:35:56;;;;;;;3.97;3.40;;;;;;;28.86;31.43;95278.16;5133777;27;20227;-77
2021/07/30 06:38:22;;;;;;;4.75;3.22;;;;;;;29.33;30.50;95271.66;5115686;27;20639;-76
2021/07/30 06:40:48;;;;;;;3.95;3.00;;;;;;;29.50;29.56;95269.50;5098241;27;20543;-76
2021/07/30 06:43:13;;;;;;;5.97;3.20;;;;;;;28.36;31.35;95269.09;5115093;27;20199;-76
2021/07/30 06:45:39;;;;;;;3.83;3.08;;;;;;;29.34;29.82;95267.94;5098114;27;20199;-77
2021/07/30 06:48:04;;;;;;;3.78;3.10;;;;;;;28.90;30.67;95284.59;5132529;27;20646;-77
2021/07/30 06:50:30;;;;;;;4.00;3.30;;;;;;;28.21;31.62;95272.50;5115176;27;20270;-77
2021/07/30 06:52:55;;;;;;;4.65;3.42;;;;;;;28.58;31.23;95271.50;5115053;27;20224;-76
2021/07/30 06:55:20;;;;;;;5.68;3.78;;;;;;;27.43;32.89;95268.22;5114906;27;20206;-77
2021/07/30 06:57:45;;;;;;;3.55;3.25;;;;;;;28.23;31.94;95274.91;5114750;27;20638;-76
2021/07/30 07:00:13;;;;;;;3.90;3.53;;;;;;;29.18;30.19;95271.72;5115256;27;20250;-78
2021/07/30 07:02:38;;;;;;;4.90;3.90;;;;;;;28.32;32.43;95277.88;5097811;27;20290;-76
2021/07/30 07:05:04;;;;;;;5.47;3.28;;;;;;;28.45;31.91;95272.84;5115223;27;20606;-76
2021/07/30 07:07:29;;;;;;;3.55;3.25;;;;;;;28.86;31.09;95272.81;5098035;27;20187;-78
2021/07/30 07:09:54;;;;;;;4.53;3.85;;;;;;;28.10;32.74;95276.22;5115691;27;20197;-78
2021/07/30 07:12:20;;;;;;;5.70;3.00;;;;;;;28.95;31.45;95273.09;5094257;28;20175;-78
2021/07/30 07:14:45;;;;;;;3.22;2.83;;;;;;;29.71;30.25;95267.56;5095056;28;20187;-78
2021/07/30 07:17:10;;;;;;;4.05;3.47;;;;;;;28.57;31.49;95267.22;5077552;28;20643;-78
2021/07/30 07:19:36;;;;;;;3.75;3.40;;;;;;;29.31;30.53;95263.91;5112913;28;20195;-76
2021/07/30 07:22:01;;;;;;;3.42;3.13;;;;;;;29.78;29.81;95267.25;5096998;28;20282;-78
2021/07/30 07:24:26;;;;;;;3.90;3.60;;;;;;;29.06;31.03;95272.78;5094350;28;20192;-78
2021/07/30 07:26:52;;;;;;;4.20;3.80;;;;;;;29.26;30.53;95271.97;5094747;28;20167;-78
2021/07/30 07:29:17;;;;;;;5.22;3.58;;;;;;;28.41;32.88;95268.28;5094397;28;20665;-78
2021/07/30 07:31:45;;;;;;;4.75;3.45;;;;;;;28.99;32.32;95272.28;5094384;28;20186;-78
2021/07/30 07:34:11;;;;;;;6.75;3.53;;;;;;;29.13;31.50;95271.72;5094941;28;20258;-78
2021/07/30 07:36:36;;;;;;;3.67;3.38;;;;;;;28.07;33.37;95266.06;5112553;28;20516;-77
2021/07/30 07:39:02;;;;;;;5.10;3.63;;;;;;;28.30;32.65;95264.81;5094607;28;20172;-76
2021/07/30 07:41:27;;;;;;;6.30;3.53;;;;;;;28.85;32.07;95260.50;5093877;28;20203;-76
2021/07/30 07:43:52;;;;;;;4.28;3.63;;;;;;;28.62;32.77;95261.84;5093989;28;20191;-76
2021/07/30 07:46:18;;;;;;;3.58;3.28;;;;;;;28.24;33.73;95257.81;5112314;28;20198;-75
2021/07/30 07:48:43;;;;;;;5.00;3.65;;;;;;;27.76;34.87;95261.72;5111944;28;20210;-75
2021/07/30 07:51:08;;;;;;;5.25;3.88;;;;;;;27.07;35.38;95260.06;5093860;28;20311;-75
2021/07/30 07:53:34;;;;;;;4.47;3.45;;;;;;;27.70;34.23;95255.56;5076849;28;20175;-75
2021/07/30 07:56:01;;;;;;;4.63;3.90;;;;;;;27.03;35.28;95246.44;5093615;28;20697;-76
2021/07/30 07:58:28;;;;;;;4.15;3.33;;;;;;;27.25;34.31;95248.94;5111885;28;20738;-76
2021/07/30 08:00:53;;;;;;;5.13;3.50;;;;;;;27.40;33.99;95255.44;5093287;28;20178;-76
2021/07/30 08:03:18;;;;;;;4.40;3.58;;;;;;;26.97;35.00;95251.97;5093406;28;20196;-76
2021/07/30 08:05:44;;;;;;;4.35;3.95;;;;;;;26.30;35.87;95247.97;5111951;28;20283;-75
2021/07/30 08:08:09;;;;;;;3.85;3.55;;;;;;;25.36;37.66;95248.31;5093543;28;20635;-75
2021/07/30 08:10:34;;;;;;;7.45;4.00;;;;;;;24.97;38.96;95258.91;5093529;28;20189;-76
2021/07/30 08:13:00;;;;;;;3.92;3.55;;;;;;;24.74;39.26;95251.97;5093518;28;20238;-75
2021/07/30 08:15:25;;;;;;;5.63;3.47;;;;;;;25.30;39.56;95249.28;5111758;28;20265;-75
2021/07/30 08:17:50;;;;;;;5.63;3.65;;;;;;;25.03;40.10;95250.00;5111488;28;20179;-75
2021/07/30 08:20:16;;;;;;;3.97;3.38;;;;;;;24.37;41.00;95246.31;5076897;28;20191;-76
2021/07/30 08:22:43;;;;;;;4.10;3.70;;;;;;;24.68;40.93;95252.91;5104178;28;20218;-76
2021/07/30 08:25:09;;;;;;;4.72;4.22;;;;;;;24.50;41.24;95250.50;5114275;28;20670;-76
2021/07/30 08:27:35;;;;;;;5.63;3.83;;;;;;;24.54;41.95;95257.75;5099771;28;20198;-77
2021/07/30 08:30:00;;;;;;;5.70;4.05;;;;;;;24.41;41.36;95247.47;5132341;28;20646;-75
2021/07/30 08:32:26;;;;;;;5.22;4.50;;;;;;;23.18;44.12;95248.84;5132016;28;20167;-76
2021/07/30 08:34:51;;;;;;;4.25;3.85;;;;;;;23.44;43.98;95247.50;5114136;28;20195;-76
2021/07/30 08:37:16;;;;;;;4.60;4.15;;;;;;;23.82;43.30;95249.59;5114110;28;20270;-76
2021/07/30 08:39:42;;;;;;;4.10;3.70;;;;;;;23.76;41.84;95242.56;5113916;28;20164;-75
2021/07/30 08:42:07;;;;;;;5.57;4.07;;;;;;;24.05;42.50;95253.19;5113816;28;20211;-76
2021/07/30 08:44:33;;;;;;;4.13;3.70;;;;;;;24.21;41.76;95239.16;5113572;28;20263;-76
2021/07/30 08:46:58;;;;;;;4.63;4.22;;;;;;;24.00;42.60;95246.72;5093202;28;20180;-76
2021/07/30 08:49:24;;;;;;;4.75;4.35;;;;;;;23.78;42.54;95248.47;5111441;28;20506;-76
2021/07/30 08:51:52;;;;;;;5.13;4.55;;;;;;;23.85;43.94;95250.94;5093365;28;20172;-78
2021/07/30 08:54:17;;;;;;;4.68;4.28;;;;;;;23.93;43.39;95248.72;5110449;28;20191;-77
2021/07/30 08:56:42;;;;;;;4.60;4.15;;;;;;;23.88;44.52;95253.94;5093303;28;20217;-76
2021/07/30 08:59:08;;;;;;;4.40;4.00;;;;;;;23.98;43.44;95248.03;5110158;28;20179;-76
2021/07/30 09:01:34;;;;;;;4.72;4.32;;;;;;;24.08;43.26;95242.09;5092799;28;20885;-76
2021/07/30 09:04:00;;;;;;;6.32;4.47;;;;;;;24.17;43.20;95248.59;5093244;28;20182;-76
2021/07/30 09:06:26;;;;;;;5.00;4.28;;;;;;;24.56;42.11;95245.06;5093462;28;20572;-77
2021/07/30 09:08:54;;;;;;;4.40;4.00;;;;;;;24.60;42.68;95248.00;5111391;28;20206;-81
2021/07/30 09:11:48;;;;;;;5.60;4.60;;;;;;;24.14;41.99;95241.94;5111400;28;20172;-76
2021/07/30 09:14:13;;;;;;;4.40;4.00;;;;;;;24.31;42.90;95239.31;5097755;28;20247;-78
2021/07/30 09:16:49;;;;;;;4.85;4.32;;;;;;;24.22;43.37;95235.44;5113847;28;20254;-77
2021/07/30 09:19:15;;;;;;;5.78;4.90;;;;;;;24.01;42.72;95237.72;5114376;28;20207;-76
2021/07/30 09:21:40;;;;;;;5.00;4.50;;;;;;;24.36;42.19;95238.59;5099355;27;20238;-77
2021/07/30 09:24:10;;;;;;;5.00;4.57;;;;;;;24.40;42.70;95239.75;5117746;27;20167;-77
2021/07/30 09:26:46;;;;;;;4.97;4.57;;;;;;;24.10;42.20;95235.50;5116982;27;20657;-76
2021/07/30 09:29:16;;;;;;;5.40;4.40;;;;;;;23.98;42.83;95238.22;5101564;27;20198;-78
2021/07/30 09:31:50;;;;;;;4.60;4.20;;;;;;;23.84;42.60;95226.28;5100765;27;20178;-77
2021/07/30 09:34:24;;;;;;;4.70;4.30;;;;;;;24.01;42.54;95243.03;5117352;27;20195;-76
2021/07/30 09:36:52;;;;;;;6.65;4.50;;;;;;;23.88;42.96;95238.03;5135017;27;20189;-77
2021/07/30 09:39:19;;;;;;;4.70;4.30;;;;;;;24.13;42.82;95234.22;5116883;27;20198;-77
2021/07/30 09:42:11;;;;;;;5.53;4.43;;;;;;;24.33;43.58;95225.81;5099232;27;20203;-77
2021/07/30 09:44:52;;;;;;;6.30;4.75;;;;;;;24.45;42.45;95235.31;5129765;27;20654;-76
2021/07/30 09:47:29;;;;;;;6.35;4.90;;;;;;;24.36;41.93;95218.16;5116271;27;20276;-75
2021/07/30 09:49:55;;;;;;;4.93;4.43;;;;;;;24.52;43.15;95211.25;5099572;27;20228;-77
2021/07/30 09:52:28;;;;;;;5.35;4.20;;;;;;;24.50;41.55;95208.84;5116374;27;20530;-76
2021/07/30 09:54:55;;;;;;;5.80;4.45;;;;;;;24.65;42.47;95202.13;5116611;27;20234;-77
2021/07/30 09:57:23;;;;;;;5.93;4.30;;;;;;;24.66;43.64;95209.09;5099692;27;20195;-76
2021/07/30 09:59:49;;;;;;;5.40;4.80;;;;;;;24.25;42.24;95205.75;5100674;27;20550;-77
2021/07/30 10:02:20;;;;;;;6.40;4.78;;;;;;;24.21;42.16;95209.97;5100320;27;20237;-77
2021/07/30 10:04:50;;;;;;;5.22;4.72;;;;;;;23.83;43.85;95205.31;5117951;27;20221;-77
2021/07/30 10:07:21;;;;;;;5.25;4.75;;;;;;;24.04;43.15;95207.28;5118633;27;20254;-76
2021/07/30 10:09:51;;;;;;;5.28;4.78;;;;;;;23.52;43.61;95202.09;5118077;27;20236;-77
2021/07/30 10:12:16;;;;;;;4.88;4.45;;;;;;;23.93;43.82;95201.00;5118582;27;20167;-77
2021/07/30 10:14:44;;;;;;;5.00;4.50;;;;;;;24.33;43.53;95205.41;5118753;27;20301;-76
2021/07/30 10:17:09;;;;;;;5.30;4.80;;;;;;;24.42;43.40;95198.63;5117926;27;20274;-78
2021/07/30 10:19:35;;;;;;;5.95;4.47;;;;;;;24.48;43.05;95207.50;5102797;27;20203;-77
2021/07/30 10:22:02;;;;;;;7.10;4.75;;;;;;;24.47;43.52;95201.38;5119307;27;20207;-78
2021/07/30 10:24:30;;;;;;;5.75;4.53;;;;;;;24.64;43.84;95203.19;5119783;27;20195;-77
2021/07/30 10:27:00;;;;;;;5.25;4.75;;;;;;;24.85;43.14;95197.94;5120716;27;20247;-77
2021/07/30 10:29:25;;;;;;;4.57;4.18;;;;;;;24.21;43.10;95199.34;5104632;27;20209;-77
2021/07/30 10:31:51;;;;;;;8.38;4.82;;;;;;;24.02;44.01;95207.50;5103183;27;20179;-77
2021/07/30 10:34:46;;;;;;;4.75;4.35;;;;;;;24.39;42.88;95198.34;5118084;27;20198;-76
2021/07/30 10:37:34;;;;;;;5.97;4.10;;;;;;;24.63;44.04;95175.03;5106663;27;20190;-76
2021/07/30 10:40:15;;;;;;;5.07;4.57;;;;;;;24.70;43.62;95175.69;5100445;27;20592;-78
2021/07/30 10:43:06;;;;;;;5.63;5.03;;;;;;;24.97;41.21;95179.22;5101394;27;20696;-77
2021/07/30 10:45:33;;;;;;;5.30;4.80;;;;;;;25.07;41.55;95176.72;5135748;27;20684;-76
2021/07/30 10:48:13;;;;;;;6.25;5.47;;;;;;;25.53;41.54;95184.41;5116391;27;20171;-77
2021/07/30 10:50:45;;;;;;;5.43;4.93;;;;;;;25.01;42.00;95185.66;5134529;27;20542;-77
2021/07/30 10:53:38;;;;;;;5.20;4.70;;;;;;;25.50;41.59;95185.72;5134435;27;20689;-77
2021/07/30 10:56:11;;;;;;;7.25;4.95;;;;;;;25.18;42.63;95182.16;5134322;27;20744;-76
2021/07/30 10:58:40;;;;;;;5.10;4.57;;;;;;;25.05;43.49;95184.13;5115516;27;20181;-77
2021/07/30 11:01:06;;;;;;;5.88;4.50;;;;;;;25.00;43.73;95181.41;5134152;27;20167;-77
2021/07/30 11:03:49;;;;;;;6.72;4.60;;;;;;;24.79;43.52;95171.56;5115567;27;20714;-76
2021/07/30 11:06:16;;;;;;;5.50;4.50;;;;;;;24.68;44.98;95183.88;5134447;27;20198;-77
2021/07/30 11:09:00;;;;;;;6.30;4.43;;;;;;;24.34;44.41;95185.78;5116235;27;20171;-77
2021/07/30 11:11:38;;;;;;;5.15;4.65;;;;;;;24.23;46.02;95179.47;5134122;27;20178;-77
2021/07/30 11:14:12;;;;;;;5.28;4.55;;;;;;;24.59;44.25;95166.78;5115657;27;20229;-78
2021/07/30 11:16:49;;;;;;;7.18;5.05;;;;;;;24.65;44.09;95164.97;5133683;27;20211;-76
2021/07/30 11:19:16;;;;;;;5.75;4.20;;;;;;;24.58;44.36;95163.31;5115794;27;20178;-76
2021/07/30 11:21:42;;;;;;;5.40;4.68;;;;;;;24.89;43.80;95160.25;5114927;27;20215;-77
2021/07/30 11:24:08;;;;;;;5.65;5.10;;;;;;;24.93;43.33;95156.88;5133469;27;20287;-77
2021/07/30 11:26:35;;;;;;;5.10;4.70;;;;;;;24.96;43.82;95158.22;5115549;27;20171;-77
2021/07/30 11:29:26;;;;;;;5.72;5.22;;;;;;;25.02;43.87;95155.41;5115554;27;20228;-75
2021/07/30 11:31:57;;;;;;;5.57;5.07;;;;;;;25.18;43.42;95148.44;5133540;27;20542;-77
2021/07/30 11:34:25;;;;;;;6.15;5.03;;;;;;;25.42;43.65;95151.59;5133724;27;20586;-77
2021/07/30 11:36:51;;;;;;;5.60;5.07;;;;;;;25.67;43.55;95151.88;5098788;27;20171;-78